Sym, Russia
Current Conditions -  °F | °C
As of 10:00 PM on Thursday 23 Oct 2014 (Local Time) from UNTT Reporting Station
Overcast Overcast  
Wind Chill: 15°   Ceiling: 6600
Heat Index: 23°   Visibility: 6mi
Dew Point: 19°   Wind: 7mph
Humidity: 86%   Direction: 50°NE
Pressure: 29.88"   Gusts: NA
Location:  60.35°N, 88.37°E
Report Text: UNTT 231500Z 05003MPS 9999 SCT026CB OVC066 M05/M07 Q1012 NOSIGRMK QFE744
Loading
Personal Weather Stations






























Interactive Weather Map
Tropical Storm Tracking
New forecast layout! Learn more

10-Day Weather Forecast

Advertisements
Track Severe Weather on mobile